Time;durP1;ratioP1;P1;durP2;ratioP2;P2;SDS_P1;SDS_P2;PMS_P1;PMS_P2;Temp;Humidity;BMP_temperature;BMP_pressure;BME280_temperature;BME280_humidity;BME280_pressure;Samples;Min_cycle;Max_cycle;Signal;HPM_P1;HPM_P2
2023/05/27 00:01:59;;;;;;;8.00;4.63;;;13.40;79.10;;;;;;5011275;28;21065;-69
2023/05/27 00:04:27;;;;;;;10.67;4.40;;;13.40;78.10;;;;;;5011069;28;20818;-68
2023/05/27 00:06:55;;;;;;;11.40;4.93;;;13.20;75.30;;;;;;5011576;28;20537;-68
2023/05/27 00:09:23;;;;;;;11.80;4.97;;;13.30;73.40;;;;;;5010994;28;20853;-69
2023/05/27 00:11:51;;;;;;;9.00;5.00;;;13.20;74.60;;;;;;5011283;28;20570;-69
2023/05/27 00:14:20;;;;;;;5.77;3.90;;;13.20;72.40;;;;;;5010783;28;20445;-69
2023/05/27 00:16:51;;;;;;;8.27;4.50;;;13.50;71.90;;;;;;5010976;28;20450;-68
2023/05/27 00:19:21;;;;;;;11.20;4.40;;;13.60;72.30;;;;;;5010560;28;20466;-68
2023/05/27 00:21:52;;;;;;;11.83;4.80;;;13.50;75.60;;;;;;5010892;28;20909;-69
2023/05/27 00:24:20;;;;;;;9.67;4.03;;;13.40;82.70;;;;;;5010641;28;20465;-67
2023/05/27 00:26:48;;;;;;;7.87;3.83;;;13.40;74.80;;;;;;5011044;28;20446;-68
2023/05/27 00:29:17;;;;;;;11.90;4.77;;;13.50;72.90;;;;;;5010916;28;20470;-69
2023/05/27 00:31:45;;;;;;;12.23;4.47;;;13.60;71.60;;;;;;5010511;28;20492;-69
2023/05/27 00:34:15;;;;;;;10.50;4.63;;;13.70;71.60;;;;;;5010338;28;20452;-69
2023/05/27 00:36:43;;;;;;;7.23;3.63;;;13.80;70.50;;;;;;5010342;28;20450;-69
2023/05/27 00:39:11;;;;;;;10.80;4.10;;;13.90;69.70;;;;;;5011018;28;20465;-68
2023/05/27 00:41:39;;;;;;;6.77;4.40;;;13.90;69.70;;;;;;5010372;28;21064;-68
2023/05/27 00:44:07;;;;;;;8.17;4.30;;;13.90;69.90;;;;;;5010637;28;20455;-68
2023/05/27 00:46:35;;;;;;;8.13;4.17;;;13.80;70.30;;;;;;5010469;28;20452;-69
2023/05/27 00:49:05;;;;;;;7.80;4.70;;;13.80;70.20;;;;;;5010290;28;20468;-68
2023/05/27 00:51:35;;;;;;;9.50;4.60;;;13.70;73.40;;;;;;5010405;28;20818;-68
2023/05/27 00:54:03;;;;;;;10.60;4.73;;;13.60;73.20;;;;;;5010012;28;20839;-69
2023/05/27 00:56:31;;;;;;;7.17;3.63;;;13.50;71.50;;;;;;5010260;28;20426;-68
2023/05/27 00:58:59;;;;;;;8.40;4.77;;;13.60;70.90;;;;;;5010125;28;20475;-68
2023/05/27 01:01:28;;;;;;;5.60;3.97;;;13.50;73.60;;;;;;5010381;28;20546;-68
2023/05/27 01:03:57;;;;;;;9.23;4.40;;;13.50;72.80;;;;;;5010058;28;20462;-68
2023/05/27 01:06:33;;;;;;;8.87;4.50;;;13.40;72.40;;;;;;5010388;28;20940;-68
2023/05/27 01:09:09;;;;;;;11.43;4.83;;;13.40;71.80;;;;;;5010527;28;20515;-68
2023/05/27 01:11:42;;;;;;;8.67;4.63;;;13.40;72.10;;;;;;5010220;28;20471;-68
2023/05/27 01:14:12;;;;;;;8.20;5.00;;;13.40;71.40;;;;;;5009391;28;20986;-69
2023/05/27 01:16:43;;;;;;;7.97;4.00;;;13.40;72.50;;;;;;5010516;28;20873;-68
2023/05/27 01:19:16;;;;;;;5.00;3.90;;;13.40;72.70;;;;;;5010391;28;20784;-68
2023/05/27 01:21:50;;;;;;;6.67;4.20;;;13.10;78.60;;;;;;5010157;28;20477;-68
2023/05/27 01:24:20;;;;;;;9.07;4.47;;;13.00;74.40;;;;;;5010585;28;20527;-69
2023/05/27 01:26:48;;;;;;;11.67;5.83;;;12.90;75.50;;;;;;5010185;28;20473;-68
2023/05/27 01:29:17;;;;;;;7.30;5.03;;;12.80;77.40;;;;;;5010598;28;20520;-69
2023/05/27 01:31:52;;;;;;;9.73;4.73;;;12.70;76.90;;;;;;5010971;28;20448;-69
2023/05/27 01:34:26;;;;;;;9.67;4.50;;;12.80;76.90;;;;;;5010914;28;20460;-68
2023/05/27 01:36:59;;;;;;;15.07;5.50;;;12.70;76.80;;;;;;5010331;28;20978;-68
2023/05/27 01:39:29;;;;;;;8.50;4.00;;;12.80;76.80;;;;;;5010460;28;20464;-68
2023/05/27 01:41:58;;;;;;;15.47;5.47;;;12.70;77.50;;;;;;5010190;28;20476;-68
2023/05/27 01:44:26;;;;;;;8.77;4.87;;;12.60;78.30;;;;;;5010018;28;20476;-68
2023/05/27 01:46:59;;;;;;;10.30;4.17;;;12.50;79.20;;;;;;5010378;28;20444;-69
2023/05/27 01:49:28;;;;;;;10.80;4.80;;;12.30;80.60;;;;;;5010006;28;20469;-68
2023/05/27 01:51:56;;;;;;;10.53;4.67;;;12.30;80.00;;;;;;5010139;28;20448;-68
2023/05/27 01:54:24;;;;;;;8.97;4.83;;;12.30;80.00;;;;;;5009755;28;20437;-68
2023/05/27 01:56:53;;;;;;;8.03;4.53;;;12.30;81.20;;;;;;5009991;28;20441;-68
2023/05/27 01:59:21;;;;;;;10.57;4.47;;;12.30;80.20;;;;;;5009996;28;20466;-68
2023/05/27 02:01:49;;;;;;;7.80;3.90;;;12.20;80.20;;;;;;5009127;28;20453;-69
2023/05/27 02:04:17;;;;;;;9.60;4.53;;;12.30;79.80;;;;;;5008803;28;20448;-69
2023/05/27 02:06:45;;;;;;;8.90;4.77;;;12.30;79.50;;;;;;5009526;28;20931;-69
2023/05/27 02:09:14;;;;;;;12.90;5.10;;;12.40;79.30;;;;;;5009733;28;20466;-69
2023/05/27 02:11:42;;;;;;;7.63;4.40;;;12.40;79.60;;;;;;5009212;28;20450;-68
2023/05/27 02:14:12;;;;;;;12.23;5.43;;;12.30;80.30;;;;;;5009134;28;20517;-68
2023/05/27 02:16:40;;;;;;;11.63;5.57;;;12.20;81.20;;;;;;5009309;28;20950;-68
2023/05/27 02:19:08;;;;;;;9.17;4.73;;;12.00;82.00;;;;;;5009508;28;20548;-68
2023/05/27 02:21:37;;;;;;;9.03;5.20;;;11.90;82.80;;;;;;5009730;28;20448;-68
2023/05/27 02:24:06;;;;;;;9.37;5.10;;;11.90;83.10;;;;;;5009049;28;20492;-68
2023/05/27 02:26:35;;;;;;;7.90;4.23;;;11.80;84.00;;;;;;5013064;28;20470;-68
2023/05/27 02:29:03;;;;;;;12.53;5.57;;;11.80;89.50;;;;;;5012620;28;20464;-68
2023/05/27 02:31:32;;;;;;;9.30;5.17;;;11.60;90.60;;;;;;5012746;28;20506;-68
2023/05/27 02:34:00;;;;;;;10.40;5.00;;;11.50;92.50;;;;;;5012504;28;20471;-68
2023/05/27 02:36:28;;;;;;;10.10;5.80;;;11.30;92.60;;;;;;5012838;28;20492;-68
2023/05/27 02:38:56;;;;;;;12.07;6.17;;;11.10;92.70;;;;;;5012482;28;20474;-68
2023/05/27 02:41:24;;;;;;;11.23;5.30;;;10.90;93.70;;;;;;5012617;28;20449;-68
2023/05/27 02:43:52;;;;;;;7.97;6.40;;;10.80;94.70;;;;;;5012147;28;21007;-67
2023/05/27 02:46:20;;;;;;;13.80;6.00;;;10.80;94.40;;;;;;5012575;28;20444;-68
2023/05/27 02:48:49;;;;;;;9.77;5.03;;;10.70;95.10;;;;;;5012714;28;20542;-68
2023/05/27 02:51:17;;;;;;;13.23;7.10;;;10.60;94.90;;;;;;5012670;28;20863;-68
2023/05/27 02:53:45;;;;;;;13.90;6.83;;;10.60;95.80;;;;;;5012302;28;20443;-68
2023/05/27 02:56:13;;;;;;;12.20;6.00;;;10.60;96.00;;;;;;5012182;28;20454;-69
2023/05/27 02:58:41;;;;;;;11.23;5.50;;;10.50;96.60;;;;;;5012592;28;20464;-68
2023/05/27 03:01:09;;;;;;;12.57;5.43;;;10.40;96.00;;;;;;5012425;28;20535;-68
2023/05/27 03:03:37;;;;;;;9.77;4.50;;;10.30;95.80;;;;;;5011889;28;20521;-68
2023/05/27 03:06:07;;;;;;;13.13;5.37;;;10.30;97.10;;;;;;5012407;28;20450;-68
2023/05/27 03:08:35;;;;;;;8.03;5.00;;;10.20;95.90;;;;;;5011910;28;20467;-67
2023/05/27 03:11:03;;;;;;;13.07;5.20;;;10.30;95.80;;;;;;5012186;28;20443;-68
2023/05/27 03:13:31;;;;;;;16.73;6.20;;;10.40;95.30;;;;;;5011750;28;20533;-67
2023/05/27 03:15:59;;;;;;;11.50;5.20;;;10.60;94.50;;;;;;5012167;28;20468;-68
2023/05/27 03:18:27;;;;;;;14.73;6.50;;;10.80;93.80;;;;;;5011784;28;20466;-68
2023/05/27 03:20:56;;;;;;;10.50;5.30;;;10.90;93.40;;;;;;5011984;28;20529;-69
2023/05/27 03:23:25;;;;;;;12.90;5.60;;;11.00;93.10;;;;;;5011313;28;20577;-68
2023/05/27 03:25:53;;;;;;;13.03;5.50;;;11.00;92.80;;;;;;5011922;28;20456;-68
2023/05/27 03:28:21;;;;;;;10.60;5.30;;;11.00;93.10;;;;;;5011860;28;20556;-68
2023/05/27 03:30:49;;;;;;;11.43;6.00;;;11.10;92.90;;;;;;5011478;28;20456;-69
2023/05/27 03:33:17;;;;;;;9.23;5.20;;;11.00;92.90;;;;;;5011505;28;20470;-69
2023/05/27 03:35:45;;;;;;;12.93;5.80;;;11.00;93.40;;;;;;5011326;28;20444;-69
2023/05/27 03:38:13;;;;;;;9.73;5.30;;;10.90;96.80;;;;;;5011393;28;20920;-68
2023/05/27 03:40:42;;;;;;;11.17;5.10;;;10.80;97.70;;;;;;5011601;28;20444;-69
2023/05/27 03:43:10;;;;;;;12.23;5.50;;;10.70;97.90;;;;;;5011282;28;20564;-68
2023/05/27 03:45:38;;;;;;;17.00;5.87;;;10.60;97.70;;;;;;5011744;28;20883;-69
2023/05/27 03:48:06;;;;;;;14.43;5.57;;;10.60;95.60;;;;;;5011376;28;20470;-69
2023/05/27 03:50:35;;;;;;;13.97;5.90;;;10.60;95.70;;;;;;5011636;28;20461;-69
2023/05/27 03:53:03;;;;;;;11.40;5.90;;;10.60;95.30;;;;;;5011274;28;20434;-69
2023/05/27 03:55:31;;;;;;;9.40;5.03;;;10.60;97.00;;;;;;5011845;28;20445;-69
2023/05/27 03:58:00;;;;;;;11.27;5.30;;;10.50;96.10;;;;;;5011332;28;20461;-69
2023/05/27 04:00:30;;;;;;;13.40;4.73;;;10.60;96.60;;;;;;5011275;28;20949;-69
2023/05/27 04:02:58;;;;;;;11.67;5.30;;;10.60;95.40;;;;;;5010875;28;20461;-69
2023/05/27 04:05:26;;;;;;;12.83;4.93;;;10.70;95.80;;;;;;5011421;28;20504;-69
2023/05/27 04:07:54;;;;;;;11.60;6.20;;;10.60;95.70;;;;;;5010937;28;20465;-69
2023/05/27 04:10:22;;;;;;;15.60;5.97;;;10.60;97.10;;;;;;5011085;28;20548;-73
2023/05/27 04:12:50;;;;;;;9.87;5.80;;;10.70;97.60;;;;;;5010623;28;20449;-69
2023/05/27 04:15:20;;;;;;;10.97;5.67;;;10.70;97.90;;;;;;5010720;28;20529;-70
2023/05/27 04:17:48;;;;;;;15.27;5.30;;;10.60;98.50;;;;;;5010835;28;20471;-69
2023/05/27 04:20:16;;;;;;;10.83;5.30;;;10.60;98.70;;;;;;5010914;28;20437;-68
2023/05/27 04:22:44;;;;;;;7.27;5.37;;;10.60;98.80;;;;;;5010579;28;20532;-69
2023/05/27 04:25:12;;;;;;;9.70;5.20;;;10.60;98.90;;;;;;5010708;28;20566;-70
2023/05/27 04:27:40;;;;;;;10.33;5.63;;;10.70;99.20;;;;;;5010967;28;20466;-69
2023/05/27 04:30:09;;;;;;;11.63;5.40;;;10.80;98.80;;;;;;5010225;28;20457;-69
2023/05/27 04:32:39;;;;;;;8.60;5.30;;;10.80;96.80;;;;;;5010396;28;20481;-67
2023/05/27 04:35:08;;;;;;;12.27;5.40;;;11.00;98.40;;;;;;5009326;28;20510;-71
2023/05/27 04:37:37;;;;;;;13.23;5.37;;;11.10;97.40;;;;;;5009986;28;20472;-69
2023/05/27 04:40:08;;;;;;;13.77;5.90;;;11.20;96.90;;;;;;5010596;28;20968;-67
2023/05/27 04:42:37;;;;;;;11.87;5.07;;;11.30;94.40;;;;;;5009767;28;20496;-67
2023/05/27 04:45:06;;;;;;;11.33;5.23;;;11.40;93.90;;;;;;5010503;28;20535;-67
2023/05/27 04:47:36;;;;;;;14.93;5.20;;;11.60;93.40;;;;;;5010058;28;20463;-67
2023/05/27 04:50:09;;;;;;;9.63;4.53;;;11.70;93.20;;;;;;5009982;28;20508;-67
2023/05/27 04:52:40;;;;;;;12.63;5.57;;;11.80;92.80;;;;;;5009818;28;20549;-69
2023/05/27 04:55:10;;;;;;;8.87;4.83;;;11.90;92.60;;;;;;5010238;28;20435;-67
2023/05/27 04:57:40;;;;;;;13.67;5.03;;;12.00;92.20;;;;;;5010277;28;20467;-68
2023/05/27 05:00:22;;;;;;;15.53;5.43;;;12.10;91.60;;;;;;5010220;28;20887;-69
2023/05/27 05:03:00;;;;;;;12.50;5.10;;;12.20;91.40;;;;;;5009961;28;20449;-69
2023/05/27 05:05:31;;;;;;;11.00;5.00;;;12.30;91.30;;;;;;5009769;28;20480;-68
2023/05/27 05:07:59;;;;;;;8.40;5.20;;;12.40;91.40;;;;;;5010087;28;20547;-68
2023/05/27 05:10:27;;;;;;;9.47;4.70;;;12.50;91.50;;;;;;5010069;28;20449;-68
2023/05/27 05:12:55;;;;;;;16.43;5.63;;;12.50;91.00;;;;;;5009706;28;20525;-68
2023/05/27 05:15:24;;;;;;;11.13;5.43;;;12.60;90.80;;;;;;5009769;28;21005;-68
2023/05/27 05:17:52;;;;;;;11.43;6.20;;;12.60;90.90;;;;;;5010009;28;20464;-69
2023/05/27 05:20:23;;;;;;;14.03;5.80;;;12.70;90.90;;;;;;5009948;28;20502;-69
2023/05/27 05:22:52;;;;;;;10.57;4.93;;;12.80;90.80;;;;;;5014076;28;20526;-69
2023/05/27 05:25:20;;;;;;;11.93;5.27;;;12.90;90.30;;;;;;5029514;28;20543;-69
2023/05/27 05:27:48;;;;;;;12.70;4.73;;;13.00;89.50;;;;;;5029441;28;20470;-69
2023/05/27 05:30:16;;;;;;;13.40;5.60;;;13.00;90.40;;;;;;5029543;28;20447;-69
2023/05/27 05:32:44;;;;;;;10.83;5.67;;;13.20;89.70;;;;;;5029480;28;20476;-68
2023/05/27 05:35:13;;;;;;;10.63;4.63;;;13.30;87.70;;;;;;5028442;28;20437;-71
2023/05/27 05:37:41;;;;;;;11.47;5.23;;;13.40;86.10;;;;;;5008941;28;20479;-67
2023/05/27 05:40:12;;;;;;;12.37;5.10;;;13.40;82.20;;;;;;5009251;28;20509;-68
2023/05/27 05:42:40;;;;;;;14.37;5.53;;;13.50;83.10;;;;;;5009733;28;20457;-67
2023/05/27 05:45:08;;;;;;;9.00;4.10;;;13.50;82.90;;;;;;5010982;28;21041;-67
2023/05/27 05:47:37;;;;;;;10.13;4.50;;;13.60;82.40;;;;;;5009141;28;20543;-67
2023/05/27 05:50:06;;;;;;;10.97;4.67;;;13.70;82.40;;;;;;5009647;28;20488;-67
2023/05/27 05:52:34;;;;;;;12.17;5.50;;;13.80;82.10;;;;;;5009750;28;20441;-67
2023/05/27 05:55:02;;;;;;;9.90;5.40;;;13.80;81.70;;;;;;5009850;28;20474;-67
2023/05/27 05:57:32;;;;;;;11.40;5.00;;;13.90;83.30;;;;;;5009576;28;20918;-65
2023/05/27 06:00:05;;;;;;;9.53;4.83;;;13.90;81.20;;;;;;5011094;28;20453;-67
2023/05/27 06:02:33;;;;;;;9.17;5.00;;;14.10;80.90;;;;;;5013001;28;21035;-68
2023/05/27 06:05:01;;;;;;;11.00;4.50;;;14.10;79.50;;;;;;5013309;28;20480;-68
2023/05/27 06:07:29;;;;;;;11.53;5.00;;;14.20;80.00;;;;;;5012981;28;20915;-68
2023/05/27 06:09:57;;;;;;;10.37;4.17;;;14.20;80.00;;;;;;5013117;28;20474;-68
2023/05/27 06:12:25;;;;;;;15.50;5.80;;;14.30;80.00;;;;;;5012782;28;20485;-66
2023/05/27 06:14:55;;;;;;;14.53;5.53;;;14.30;78.00;;;;;;5012938;28;20469;-68
2023/05/27 06:17:23;;;;;;;12.33;6.60;;;14.30;76.60;;;;;;5013382;28;20441;-68
2023/05/27 06:19:51;;;;;;;15.10;5.00;;;14.40;77.50;;;;;;5013249;28;20995;-68
2023/05/27 06:22:19;;;;;;;10.37;4.30;;;14.40;77.50;;;;;;5012912;28;20483;-68
2023/05/27 06:24:47;;;;;;;11.60;4.90;;;14.50;78.90;;;;;;5012666;28;20485;-68
2023/05/27 06:27:15;;;;;;;18.53;5.67;;;14.60;76.90;;;;;;5013164;28;20449;-68
2023/05/27 06:29:44;;;;;;;7.73;4.17;;;14.60;77.20;;;;;;5013085;28;20445;-67
2023/05/27 06:32:13;;;;;;;9.07;4.43;;;14.80;78.70;;;;;;5013199;28;20557;-68
2023/05/27 06:34:41;;;;;;;8.17;4.63;;;14.80;75.90;;;;;;5012684;28;20500;-67
2023/05/27 06:37:10;;;;;;;10.10;4.53;;;14.90;80.50;;;;;;5012839;28;20555;-67
2023/05/27 06:39:38;;;;;;;13.20;5.03;;;15.00;77.10;;;;;;5012960;28;20503;-67
2023/05/27 06:42:06;;;;;;;8.60;4.13;;;15.10;78.60;;;;;;5012989;28;20548;-68
2023/05/27 06:44:33;;;;;;;16.23;5.53;;;15.20;76.70;;;;;;5012388;28;20444;-68
2023/05/27 06:47:02;;;;;;;10.00;4.43;;;15.40;75.00;;;;;;5012828;28;20536;-68
2023/05/27 06:49:31;;;;;;;10.00;5.43;;;15.40;72.20;;;;;;5012321;28;20463;-68
2023/05/27 06:52:00;;;;;;;8.60;4.47;;;15.40;71.90;;;;;;5012882;28;20454;-68
2023/05/27 06:54:28;;;;;;;13.43;4.60;;;15.40;71.40;;;;;;5012376;28;20454;-68
2023/05/27 06:56:55;;;;;;;14.90;6.40;;;15.50;71.50;;;;;;5012622;28;20505;-68
2023/05/27 06:59:23;;;;;;;9.20;4.97;;;15.60;71.20;;;;;;5012361;28;21097;-68
2023/05/27 07:01:52;;;;;;;9.27;4.60;;;15.70;70.80;;;;;;5012642;28;20534;-68
2023/05/27 07:04:20;;;;;;;10.80;4.40;;;15.80;73.30;;;;;;5011788;28;20457;-69
2023/05/27 07:06:49;;;;;;;10.60;4.53;;;15.90;73.30;;;;;;5012158;28;20522;-68
2023/05/27 07:09:17;;;;;;;9.50;5.90;;;16.10;72.00;;;;;;5012076;28;20464;-68
2023/05/27 07:11:45;;;;;;;13.50;4.83;;;16.20;69.70;;;;;;5011258;28;20909;-68
2023/05/27 07:14:13;;;;;;;10.00;4.93;;;16.40;68.80;;;;;;5011741;28;20494;-68
2023/05/27 07:16:42;;;;;;;7.00;4.10;;;16.50;68.20;;;;;;5012080;28;20453;-68
2023/05/27 07:19:09;;;;;;;10.23;4.17;;;16.60;70.90;;;;;;5011893;28;21177;-68
2023/05/27 07:21:37;;;;;;;11.60;5.10;;;16.70;68.10;;;;;;5011791;28;20445;-68
2023/05/27 07:24:07;;;;;;;16.37;4.93;;;16.80;69.10;;;;;;5011850;28;20500;-68
2023/05/27 07:26:35;;;;;;;12.63;5.40;;;16.80;66.00;;;;;;5011768;28;20481;-68
2023/05/27 07:29:03;;;;;;;7.73;4.30;;;16.80;67.10;;;;;;5011759;28;20559;-68
2023/05/27 07:31:31;;;;;;;8.07;4.40;;;16.90;67.10;;;;;;5011728;28;20442;-68
2023/05/27 07:33:59;;;;;;;13.70;5.73;;;16.90;66.20;;;;;;5011429;28;21010;-68
2023/05/27 07:36:27;;;;;;;7.77;4.70;;;17.00;65.80;;;;;;5012404;28;20445;-68
2023/05/27 07:38:55;;;;;;;10.57;4.87;;;17.10;66.00;;;;;;5011886;28;20468;-68
2023/05/27 07:41:26;;;;;;;11.17;5.23;;;17.30;64.80;;;;;;5011897;28;20444;-68
2023/05/27 07:43:54;;;;;;;7.80;4.70;;;17.20;63.90;;;;;;5011462;28;20441;-68
2023/05/27 07:46:22;;;;;;;7.77;4.60;;;17.30;65.60;;;;;;5011988;28;20482;-68
2023/05/27 07:48:50;;;;;;;13.10;5.07;;;17.50;63.20;;;;;;5011986;28;20462;-68
2023/05/27 07:51:18;;;;;;;11.60;5.20;;;17.50;63.70;;;;;;5012549;28;20500;-68
2023/05/27 07:53:47;;;;;;;11.70;5.17;;;17.60;64.10;;;;;;5012696;28;20907;-68
2023/05/27 07:56:15;;;;;;;12.77;5.10;;;17.60;64.00;;;;;;5012083;28;20473;-68
2023/05/27 07:58:45;;;;;;;8.97;4.17;;;17.80;63.60;;;;;;5011635;28;20516;-68
2023/05/27 08:01:13;;;;;;;10.48;5.00;;;17.90;63.10;;;;;;5011784;28;20331;-68
2023/05/27 08:03:41;;;;;;;10.53;4.23;;;17.90;62.40;;;;;;5011079;28;20202;-68
2023/05/27 08:06:09;;;;;;;8.93;4.60;;;18.10;63.70;;;;;;5011433;28;20485;-68
2023/05/27 08:08:40;;;;;;;7.47;4.63;;;18.30;62.40;;;;;;5011109;28;20496;-68
2023/05/27 08:11:08;;;;;;;9.53;4.70;;;18.50;64.30;;;;;;5011226;28;20945;-68
2023/05/27 08:13:36;;;;;;;10.97;4.33;;;18.60;63.40;;;;;;5011014;28;20497;-69
2023/05/27 08:16:06;;;;;;;9.33;5.57;;;18.70;63.90;;;;;;5011174;28;20480;-68
2023/05/27 08:18:34;;;;;;;10.53;5.67;;;18.80;62.20;;;;;;5010953;28;20468;-69
2023/05/27 08:21:02;;;;;;;9.97;5.23;;;18.80;60.80;;;;;;5010881;28;20446;-68
2023/05/27 08:23:31;;;;;;;9.30;5.50;;;18.90;62.40;;;;;;5010317;28;21006;-68
2023/05/27 08:25:59;;;;;;;9.33;4.80;;;18.90;61.20;;;;;;5010675;28;20532;-68
2023/05/27 08:28:27;;;;;;;9.37;4.70;;;18.90;60.10;;;;;;5010982;28;20516;-68
2023/05/27 08:30:54;;;;;;;9.40;6.70;;;18.80;59.30;;;;;;5010845;28;20560;-68
2023/05/27 08:33:24;;;;;;;13.07;5.20;;;19.00;60.70;;;;;;5010425;28;21010;-68
2023/05/27 08:35:52;;;;;;;12.50;6.00;;;19.00;59.10;;;;;;5011373;28;20491;-68
2023/05/27 08:38:20;;;;;;;10.43;5.07;;;19.10;59.10;;;;;;5010936;28;20859;-68
2023/05/27 08:40:48;;;;;;;8.03;5.07;;;19.30;59.90;;;;;;5010604;28;20446;-67
2023/05/27 08:43:18;;;;;;;11.63;5.47;;;19.40;59.20;;;;;;5010299;28;20873;-67
2023/05/27 08:45:46;;;;;;;8.47;4.67;;;19.50;59.70;;;;;;5010430;28;20489;-67
2023/05/27 08:48:15;;;;;;;8.50;5.10;;;19.60;58.70;;;;;;5010383;28;20465;-68
2023/05/27 08:50:45;;;;;;;7.70;4.80;;;19.50;58.80;;;;;;5010404;28;20438;-68
2023/05/27 08:53:14;;;;;;;6.73;4.87;;;19.70;58.20;;;;;;5010233;28;20490;-68
2023/05/27 08:55:43;;;;;;;8.73;5.50;;;19.70;58.20;;;;;;5010443;28;20442;-68
2023/05/27 08:58:13;;;;;;;8.37;4.90;;;19.70;57.70;;;;;;5010084;28;20988;-69
2023/05/27 09:00:41;;;;;;;12.53;5.60;;;19.90;59.50;;;;;;5010306;28;20538;-68
2023/05/27 09:03:10;;;;;;;10.00;5.20;;;20.20;58.90;;;;;;5009791;28;20474;-68
2023/05/27 09:05:38;;;;;;;9.03;4.90;;;20.20;57.80;;;;;;5010147;28;20480;-69
2023/05/27 09:08:07;;;;;;;20.10;7.87;;;20.30;59.20;;;;;;5010177;28;20464;-68
2023/05/27 09:10:37;;;;;;;9.70;5.83;;;20.50;58.40;;;;;;5010199;28;20540;-68
2023/05/27 09:13:05;;;;;;;9.67;5.70;;;20.60;58.80;;;;;;5009760;28;20561;-68
2023/05/27 09:15:33;;;;;;;12.13;6.23;;;20.90;57.80;;;;;;5009911;28;20438;-68
2023/05/27 09:18:03;;;;;;;6.87;5.53;;;21.10;57.40;;;;;;5010330;28;20458;-68
2023/05/27 09:20:31;;;;;;;7.53;5.57;;;21.00;55.70;;;;;;5010245;28;20445;-69
2023/05/27 09:23:01;;;;;;;8.33;6.17;;;21.00;57.80;;;;;;5009939;28;20492;-68
2023/05/27 09:25:31;;;;;;;11.37;5.83;;;21.10;56.60;;;;;;5009988;28;20508;-68
2023/05/27 09:27:59;;;;;;;10.47;5.40;;;21.30;56.80;;;;;;5009902;28;20879;-68
2023/05/27 09:30:28;;;;;;;11.83;5.97;;;21.60;56.80;;;;;;5010230;28;20437;-67
2023/05/27 09:33:03;;;;;;;9.90;4.70;;;21.90;56.60;;;;;;5009823;28;20842;-67
2023/05/27 09:35:31;;;;;;;9.57;5.73;;;22.30;56.10;;;;;;5012180;28;20990;-68
2023/05/27 09:38:06;;;;;;;11.13;7.07;;;22.60;55.30;;;;;;5013989;28;20468;-68
2023/05/27 09:40:36;;;;;;;8.60;6.00;;;23.00;54.80;;;;;;5013941;28;20476;-68
2023/05/27 09:43:04;;;;;;;11.60;6.50;;;23.10;51.30;;;;;;5013925;28;20549;-67
2023/05/27 09:45:34;;;;;;;8.80;5.70;;;22.80;53.70;;;;;;5013984;28;20449;-68
2023/05/27 09:48:03;;;;;;;10.10;6.10;;;22.40;53.10;;;;;;5013745;28;20481;-69
2023/05/27 09:50:32;;;;;;;9.63;6.20;;;22.50;54.20;;;;;;5014040;28;20489;-68
2023/05/27 09:53:01;;;;;;;7.40;5.90;;;22.90;54.30;;;;;;5013704;28;20452;-69
2023/05/27 09:55:41;;;;;;;7.47;6.00;;;23.60;53.50;;;;;;5014209;28;20438;-68
2023/05/27 09:58:09;;;;;;;8.47;6.10;;;24.30;49.50;;;;;;5014113;28;20872;-69
2023/05/27 10:00:39;;;;;;;9.90;6.30;;;24.00;51.20;;;;;;5014150;28;20442;-69
2023/05/27 10:03:10;;;;;;;9.87;6.50;;;24.40;49.10;;;;;;5013657;28;20442;-69
2023/05/27 10:05:38;;;;;;;8.07;5.93;;;24.90;51.80;;;;;;5014270;28;20464;-69
2023/05/27 10:08:06;;;;;;;7.70;6.00;;;25.70;48.20;;;;;;5013597;28;20485;-69
2023/05/27 10:10:53;;;;;;;9.60;6.70;;;25.50;49.00;;;;;;5013646;28;20480;-68
2023/05/27 10:13:26;;;;;;;9.23;6.60;;;25.40;50.10;;;;;;5013072;28;21042;-69
2023/05/27 10:15:53;;;;;;;7.97;6.50;;;25.90;49.90;;;;;;5013554;28;20876;-69
2023/05/27 10:18:26;;;;;;;7.83;5.30;;;26.40;46.40;;;;;;5013271;28;21179;-69
2023/05/27 10:20:55;;;;;;;7.17;5.90;;;26.50;46.30;;;;;;5013531;28;20481;-69
2023/05/27 10:23:26;;;;;;;9.93;6.83;;;26.90;48.10;;;;;;5013123;28;20448;-69
2023/05/27 10:25:57;;;;;;;9.37;6.50;;;26.80;45.00;;;;;;5013423;28;20529;-69
2023/05/27 10:28:26;;;;;;;8.90;5.67;;;27.10;47.60;;;;;;5013037;28;21003;-69
2023/05/27 10:31:03;;;;;;;9.33;7.17;;;27.60;45.00;;;;;;5013269;28;20936;-69
2023/05/27 10:33:32;;;;;;;7.00;6.30;;;27.70;43.90;;;;;;5012815;28;20441;-69
2023/05/27 10:36:07;;;;;;;7.97;6.53;;;27.30;42.40;;;;;;5013076;28;20506;-69
2023/05/27 10:38:41;;;;;;;9.90;6.87;;;26.80;45.00;;;;;;5012973;28;20500;-69
2023/05/27 10:41:11;;;;;;;7.50;6.43;;;27.10;44.70;;;;;;5012904;28;20449;-70
2023/05/27 10:43:39;;;;;;;9.00;7.07;;;26.90;43.50;;;;;;5012606;28;20442;-68
2023/05/27 10:46:09;;;;;;;9.53;7.10;;;26.30;45.10;;;;;;5011378;28;20533;-68
2023/05/27 10:48:39;;;;;;;7.83;6.10;;;26.60;45.20;;;;;;5012569;28;20485;-68
2023/05/27 10:51:08;;;;;;;7.20;6.50;;;26.50;43.30;;;;;;5012748;28;20442;-68
2023/05/27 10:53:37;;;;;;;7.77;6.67;;;26.50;43.40;;;;;;5012220;28;20944;-69
2023/05/27 10:56:06;;;;;;;11.20;6.80;;;26.60;40.90;;;;;;5012677;28;20545;-69
2023/05/27 10:58:37;;;;;;;8.17;6.17;;;27.00;45.30;;;;;;5012606;28;20496;-69
2023/05/27 11:01:10;;;;;;;7.60;6.03;;;27.70;43.90;;;;;;5012623;28;20556;-69
2023/05/27 11:03:44;;;;;;;8.17;6.30;;;28.30;42.90;;;;;;5012111;28;20434;-69
2023/05/27 11:06:14;;;;;;;7.93;6.20;;;29.00;41.60;;;;;;5012373;28;21014;-70
2023/05/27 11:08:43;;;;;;;8.27;5.83;;;29.40;41.70;;;;;;5012429;28;20481;-69
2023/05/27 11:11:12;;;;;;;11.30;6.93;;;29.70;38.70;;;;;;5012533;28;20449;-69
2023/05/27 11:13:43;;;;;;;11.83;6.60;;;28.10;38.40;;;;;;5012194;28;20457;-69
2023/05/27 11:16:15;;;;;;;9.30;6.70;;;27.40;42.70;;;;;;5012042;28;20479;-69
2023/05/27 11:18:44;;;;;;;7.10;6.20;;;27.30;41.20;;;;;;5012227;28;20458;-69
2023/05/27 11:21:15;;;;;;;6.67;5.90;;;27.50;40.70;;;;;;5011982;28;20481;-68
2023/05/27 11:23:45;;;;;;;8.43;6.27;;;28.10;40.40;;;;;;5011855;28;20449;-69
2023/05/27 11:26:18;;;;;;;7.37;6.20;;;27.40;39.80;;;;;;5012106;28;20972;-70
2023/05/27 11:28:48;;;;;;;11.67;6.83;;;27.70;41.80;;;;;;5011595;28;20868;-69
2023/05/27 11:31:17;;;;;;;7.60;6.23;;;27.60;40.70;;;;;;5012082;28;20536;-69
2023/05/27 11:33:45;;;;;;;7.07;6.27;;;26.30;40.80;;;;;;5011272;28;20867;-68
2023/05/27 11:36:16;;;;;;;7.90;5.63;;;26.10;41.30;;;;;;5011975;28;20441;-69
2023/05/27 11:38:51;;;;;;;8.10;6.17;;;26.20;44.30;;;;;;5011665;28;20829;-69
2023/05/27 11:41:20;;;;;;;7.10;5.77;;;27.40;44.30;;;;;;5011853;28;20477;-69
2023/05/27 11:43:56;;;;;;;9.20;5.60;;;28.70;41.90;;;;;;5011283;28;20561;-68
2023/05/27 11:46:25;;;;;;;7.73;5.63;;;28.70;40.70;;;;;;5011837;28;20828;-68
2023/05/27 11:48:53;;;;;;;6.50;5.80;;;28.70;40.20;;;;;;5011518;28;20481;-69
2023/05/27 11:51:28;;;;;;;10.00;6.53;;;27.80;40.20;;;;;;5011554;28;20438;-69
2023/05/27 11:53:58;;;;;;;11.43;6.77;;;27.40;39.60;;;;;;5011070;28;20533;-70
2023/05/27 11:56:26;;;;;;;6.87;6.20;;;27.60;41.60;;;;;;5011498;28;20461;-69
2023/05/27 11:58:56;;;;;;;7.90;6.20;;;28.30;38.40;;;;;;5010909;28;20577;-69
2023/05/27 12:01:25;;;;;;;12.90;6.97;;;29.00;42.00;;;;;;5011282;28;20499;-70
2023/05/27 12:03:53;;;;;;;7.70;5.67;;;29.50;38.70;;;;;;5010953;28;20509;-69
2023/05/27 12:06:20;;;;;;;9.40;6.20;;;29.10;39.90;;;;;;5011225;28;20446;-70
2023/05/27 12:08:48;;;;;;;9.10;6.40;;;29.20;40.50;;;;;;5011121;28;20508;-70
2023/05/27 12:11:16;;;;;;;13.10;6.30;;;29.80;39.40;;;;;;5011231;28;20442;-70
2023/05/27 12:13:44;;;;;;;8.43;6.20;;;29.50;34.60;;;;;;5011097;28;20536;-70
2023/05/27 12:16:14;;;;;;;8.20;6.30;;;28.00;37.50;;;;;;5011240;28;20472;-70
2023/05/27 12:18:42;;;;;;;8.73;5.77;;;28.60;44.00;;;;;;5011018;28;20458;-70
2023/05/27 12:21:09;;;;;;;8.27;6.00;;;30.00;40.40;;;;;;5011542;28;20533;-70
2023/05/27 12:23:38;;;;;;;12.90;6.60;;;30.60;38.40;;;;;;5010899;28;20536;-70
2023/05/27 12:26:05;;;;;;;8.73;5.83;;;30.00;33.60;;;;;;5010928;28;20474;-68
2023/05/27 12:28:33;;;;;;;6.73;5.90;;;29.20;35.40;;;;;;5011072;28;20525;-68
2023/05/27 12:31:01;;;;;;;8.37;5.90;;;28.40;35.60;;;;;;5011081;28;20442;-68
2023/05/27 12:33:31;;;;;;;7.43;5.63;;;28.30;39.00;;;;;;5010434;28;20485;-68
2023/05/27 12:36:00;;;;;;;7.73;5.67;;;29.10;40.10;;;;;;5011122;28;20819;-69
2023/05/27 12:38:28;;;;;;;7.27;6.17;;;29.60;39.00;;;;;;5010634;28;20509;-69
2023/05/27 12:40:56;;;;;;;7.67;6.17;;;30.50;35.20;;;;;;5010936;28;20529;-69
2023/05/27 12:43:24;;;;;;;9.07;7.00;;;30.00;33.70;;;;;;5010365;28;20826;-69
2023/05/27 12:45:52;;;;;;;11.23;5.67;;;29.10;36.10;;;;;;5010744;28;20456;-69
2023/05/27 12:48:21;;;;;;;7.10;5.30;;;29.80;37.90;;;;;;5010846;28;20572;-69
2023/05/27 12:50:51;;;;;;;9.73;5.70;;;29.20;35.00;;;;;;5010914;28;20438;-69
2023/05/27 12:53:19;;;;;;;8.10;6.63;;;28.10;35.90;;;;;;5010775;28;20511;-69